createdAt,value
2017-08-18T00:05:07.609Z,2.20
2017-08-18T00:15:30.541Z,3.43
2017-08-18T00:25:53.161Z,1.90
2017-08-18T00:36:15.824Z,2.80
2017-08-18T00:46:38.383Z,2.60
2017-08-18T00:57:00.288Z,3.60
2017-08-18T01:07:21.525Z,2.10
2017-08-18T01:17:44.424Z,4.10
2017-08-18T01:28:07.009Z,2.13
2017-08-18T01:38:30.511Z,3.40
2017-08-18T01:48:52.467Z,4.17
2017-08-18T01:59:14.137Z,6.60
2017-08-18T02:09:36.989Z,4.10
2017-08-18T02:19:59.721Z,2.10
2017-08-18T02:30:22.372Z,2.10
2017-08-18T02:46:01.893Z,1.90
2017-08-18T02:51:08.537Z,2.33
2017-08-18T03:01:30.524Z,4.27
2017-08-18T03:11:52.668Z,2.00
2017-08-18T03:22:15.759Z,4.60
2017-08-18T03:32:39.234Z,2.43
2017-08-18T03:48:17.845Z,4.80
2017-08-18T03:58:40.353Z,3.45
2017-08-18T04:09:02.918Z,6.50
2017-08-18T04:19:25.593Z,2.97
2017-08-18T04:29:47.393Z,4.03
2017-08-18T04:40:09.239Z,5.70
2017-08-18T04:50:31.894Z,4.30
2017-08-18T05:00:53.682Z,3.75
2017-08-18T05:11:15.894Z,8.88
2017-08-18T05:21:37.839Z,6.43
2017-08-18T05:32:03.943Z,8.90
2017-08-18T05:47:41.809Z,8.75
2017-08-18T05:58:05.975Z,5.80
2017-08-18T06:08:29.091Z,11.77
2017-08-18T06:18:51.636Z,13.45
2017-08-18T06:30:16.912Z,9.63
2017-08-18T06:45:55.087Z,9.10
2017-08-18T06:56:17.012Z,5.15
2017-08-18T07:06:41.293Z,14.67
2017-08-18T07:17:04.081Z,9.38
2017-08-18T07:27:26.312Z,16.70
2017-08-18T07:37:48.166Z,10.53
2017-08-18T07:48:11.820Z,9.55
2017-08-18T07:58:34.015Z,13.20
2017-08-18T08:08:56.523Z,9.02
2017-08-18T08:19:19.919Z,17.27
2017-08-18T08:29:45.699Z,9.83
2017-08-18T08:45:25.333Z,13.63
2017-08-18T08:55:47.973Z,15.27
2017-08-18T09:06:11.803Z,11.37
2017-08-18T09:16:34.352Z,10.83
2017-08-18T09:37:54.586Z,5.07
2017-08-18T09:48:46.432Z,3.90
2017-08-18T09:59:38.572Z,4.10
2017-08-18T10:10:14.217Z,3.80
2017-08-18T10:20:41.205Z,6.10
2017-08-18T10:31:14.885Z,3.73
2017-08-18T10:47:06.747Z,3.70
2017-08-18T10:57:28.644Z,2.35
2017-08-18T11:07:52.056Z,2.00
2017-08-18T11:18:15.473Z,1.30
2017-08-18T11:28:37.470Z,3.22
2017-08-18T11:44:42.728Z,1.90
2017-08-18T11:55:09.367Z,1.80
2017-08-18T12:05:33.942Z,2.42
2017-08-18T12:16:13.167Z,3.90
2017-08-18T12:26:40.881Z,2.33
2017-08-18T12:37:11.443Z,1.75
2017-08-18T12:47:34.231Z,3.75
2017-08-18T12:57:57.644Z,2.60
2017-08-18T13:08:20.572Z,2.60
2017-08-18T13:18:42.504Z,7.00
2017-08-18T13:29:04.281Z,2.20
2017-08-18T13:44:42.917Z,2.90
2017-08-18T13:55:10.810Z,7.45
2017-08-18T14:05:44.988Z,2.15
2017-08-18T14:16:07.661Z,3.10
2017-08-18T14:26:35.117Z,3.12
2017-08-18T14:36:57.783Z,3.67
2017-08-18T14:47:24.583Z,4.30
2017-08-18T14:57:47.308Z,4.00
2017-08-18T15:08:09.844Z,4.03
2017-08-18T15:18:32.414Z,5.37
2017-08-18T15:28:54.990Z,4.40
2017-08-18T15:44:34.209Z,7.47
2017-08-18T15:54:58.514Z,5.32
2017-08-18T16:05:20.992Z,5.70
2017-08-18T16:15:42.886Z,6.40
2017-08-18T16:26:05.378Z,5.50
2017-08-18T16:31:11.148Z,3.17
2017-08-18T16:46:48.909Z,16.80
2017-08-18T16:57:11.486Z,10.30
2017-08-18T17:07:34.111Z,10.57
2017-08-18T17:17:56.753Z,8.82
2017-08-18T17:28:19.570Z,15.40
2017-08-18T17:38:41.396Z,10.50
2017-08-18T17:49:04.451Z,14.37
2017-08-18T17:59:26.398Z,7.67
2017-08-18T18:09:49.317Z,8.27
2017-08-18T18:20:12.732Z,6.23
2017-08-18T18:30:35.800Z,5.10
2017-08-18T18:46:16.400Z,4.30
2017-08-18T18:56:39.736Z,6.43
2017-08-18T19:07:01.682Z,11.43
2017-08-18T19:17:24.303Z,12.10
2017-08-18T19:27:45.996Z,13.98
2017-08-18T19:38:08.108Z,13.00
2017-08-18T19:48:30.105Z,12.33
2017-08-18T19:58:51.948Z,20.50
2017-08-18T20:09:14.899Z,14.67
2017-08-18T20:19:37.506Z,13.50
2017-08-18T20:30:00.022Z,13.43
2017-08-18T20:45:39.402Z,12.40
2017-08-18T20:56:01.361Z,13.37
2017-08-18T21:06:24.690Z,14.53
2017-08-18T21:16:46.586Z,19.07
2017-08-18T21:27:13.324Z,24.83
2017-08-18T21:37:35.636Z,26.63
2017-08-18T21:47:58.976Z,29.12
2017-08-18T21:59:21.489Z,25.10
2017-08-18T22:09:44.052Z,33.10
2017-08-18T22:20:07.383Z,9.00
2017-08-18T22:30:29.104Z,5.50
2017-08-18T22:46:07.607Z,9.80
2017-08-18T22:51:14.593Z,8.90
2017-08-18T23:01:37.329Z,11.70
2017-08-18T23:12:01.907Z,7.53
2017-08-18T23:22:24.849Z,5.90
2017-08-18T23:32:48.462Z,7.40
2017-08-18T23:48:28.149Z,8.80
